createdAt,value
2018-08-06T00:00:25.483Z,18.6
2018-08-06T00:01:25.508Z,18.62
2018-08-06T00:02:25.273Z,18.58
2018-08-06T00:03:25.554Z,18.57
2018-08-06T00:05:25.606Z,18.7
2018-08-06T00:06:25.367Z,18.62
2018-08-06T00:07:25.658Z,18.73
2018-08-06T00:08:25.680Z,18.67
2018-08-06T00:09:40.463Z,18.72
2018-08-06T00:10:25.722Z,18.63
2018-08-06T00:11:25.490Z,18.67
2018-08-06T00:12:25.774Z,18.8
2018-08-06T00:13:25.797Z,18.7
2018-08-06T00:14:25.819Z,18.72
2018-08-06T00:15:25.849Z,18.7
2018-08-06T00:16:25.871Z,18.72
2018-08-06T00:17:25.892Z,18.8
2018-08-06T00:18:25.916Z,18.82
2018-08-06T00:19:25.944Z,18.7
2018-08-06T00:20:40.626Z,18.72
2018-08-06T00:22:25.501Z,18.73
2018-08-06T00:24:26.076Z,18.85
2018-08-06T00:25:25.833Z,18.9
2018-08-06T00:26:26.115Z,18.88
2018-08-06T00:27:26.135Z,18.9
2018-08-06T00:28:26.160Z,18.81
2018-08-06T00:29:26.200Z,18.85
2018-08-06T00:30:26.217Z,18.85
2018-08-06T00:31:26.233Z,18.92
2018-08-06T00:32:26.256Z,18.88
2018-08-06T00:33:26.281Z,18.92
2018-08-06T00:34:26.306Z,18.9
2018-08-06T00:35:26.331Z,18.92
2018-08-06T00:36:41.016Z,18.98
2018-08-06T00:37:26.119Z,18.88
2018-08-06T00:38:26.404Z,18.94
2018-08-06T00:40:26.455Z,19.04
2018-08-06T00:41:26.477Z,19.04
2018-08-06T00:42:26.500Z,19.13
2018-08-06T00:43:26.520Z,19.13
2018-08-06T00:44:41.211Z,19.06
2018-08-06T00:45:40.978Z,19.02
2018-08-06T00:46:26.606Z,19.1
2018-08-06T00:48:26.647Z,19
2018-08-06T00:49:26.511Z,19.08
2018-08-06T00:50:26.699Z,19.02
2018-08-06T00:51:41.380Z,19.13
2018-08-06T00:52:26.482Z,19.16
2018-08-06T00:53:26.508Z,19.13
2018-08-06T00:56:26.839Z,19.19
2018-08-06T00:57:26.863Z,19.19
2018-08-06T00:58:26.885Z,19.13
2018-08-06T00:59:26.910Z,19.11
2018-08-06T01:00:26.935Z,19.18
2018-08-06T01:01:26.959Z,19.18
2018-08-06T01:02:26.983Z,19.18
2018-08-06T01:03:27.003Z,19.14
2018-08-06T01:04:27.037Z,19.16
2018-08-06T01:05:26.802Z,19.16
2018-08-06T01:06:27.079Z,19.14
2018-08-06T01:07:27.102Z,19.16
2018-08-06T01:08:27.126Z,19.18
2018-08-06T01:09:26.895Z,19.19
2018-08-06T01:10:27.176Z,19.23
2018-08-06T01:11:27.207Z,19.26
2018-08-06T01:13:26.993Z,19.18
2018-08-06T01:14:27.019Z,19.13
2018-08-06T01:15:27.037Z,19.14
2018-08-06T01:16:27.324Z,19.16
2018-08-06T01:17:27.087Z,19.11
2018-08-06T01:18:27.369Z,19.04
2018-08-06T01:19:27.397Z,19.14
2018-08-06T01:20:27.444Z,19.13
2018-08-06T01:21:27.441Z,19.11
2018-08-06T01:22:27.471Z,19.02
2018-08-06T01:23:42.150Z,19.08
2018-08-06T01:24:27.514Z,19.04
2018-08-06T01:25:27.541Z,19.14
2018-08-06T01:26:27.559Z,19.06
2018-08-06T01:28:27.611Z,19
2018-08-06T01:29:27.634Z,19.06
2018-08-06T01:31:27.429Z,19
2018-08-06T01:32:42.368Z,18.95
2018-08-06T01:33:27.730Z,18.91
2018-08-06T01:34:27.790Z,18.91
2018-08-06T01:35:42.439Z,18.95
2018-08-06T01:36:27.805Z,19.04
2018-08-06T01:37:27.830Z,18.99
2018-08-06T01:38:27.595Z,19
2018-08-06T01:39:42.538Z,18.99
2018-08-06T01:41:27.768Z,18.98
2018-08-06T01:42:27.969Z,18.95
2018-08-06T01:43:27.981Z,18.84
2018-08-06T01:44:27.736Z,18.84
2018-08-06T01:45:27.765Z,18.9
2018-08-06T01:46:28.052Z,18.88
2018-08-06T01:47:28.071Z,18.84
2018-08-06T01:48:28.089Z,18.87
2018-08-06T01:49:28.119Z,18.82
2018-08-06T01:50:28.146Z,18.84
2018-08-06T01:51:28.163Z,18.82
2018-08-06T01:52:28.192Z,18.81
2018-08-06T01:53:28.218Z,18.82
2018-08-06T01:54:27.982Z,18.84
2018-08-06T01:55:42.925Z,18.81
2018-08-06T01:56:28.280Z,18.78
2018-08-06T01:57:28.320Z,18.72
2018-08-06T01:58:28.335Z,18.82
2018-08-06T02:00:28.392Z,18.7
2018-08-06T02:01:43.070Z,18.8
2018-08-06T02:02:28.430Z,18.75
2018-08-06T02:03:28.455Z,18.72
2018-08-06T02:04:28.218Z,18.65
2018-08-06T02:05:43.166Z,18.62
2018-08-06T02:06:28.526Z,18.69
2018-08-06T02:07:28.549Z,18.55
2018-08-06T02:08:28.316Z,18.63
2018-08-06T02:09:28.598Z,18.6
2018-08-06T02:11:43.308Z,18.62
2018-08-06T02:12:28.673Z,18.58
2018-08-06T02:13:28.437Z,18.7
2018-08-06T02:14:28.470Z,18.6
2018-08-06T02:16:28.765Z,18.48
2018-08-06T02:17:28.792Z,18.47
2018-08-06T02:18:28.812Z,18.48
2018-08-06T02:19:28.839Z,18.51
2018-08-06T02:20:28.603Z,18.51
2018-08-06T02:21:28.884Z,18.44
2018-08-06T02:22:28.913Z,18.41
2018-08-06T02:23:28.934Z,18.39
2018-08-06T02:24:28.703Z,18.44
2018-08-06T02:27:28.773Z,18.44
2018-08-06T02:28:29.054Z,18.42
2018-08-06T02:29:28.828Z,18.47
2018-08-06T02:30:29.106Z,18.44
2018-08-06T02:31:29.133Z,18.55
2018-08-06T02:32:29.153Z,18.37
2018-08-06T02:33:28.917Z,18.37
2018-08-06T02:34:28.683Z,18.5
2018-08-06T02:35:29.225Z,18.41
2018-08-06T02:36:43.650Z,18.45
2018-08-06T02:37:29.277Z,18.41
2018-08-06T02:38:29.046Z,18.41
2018-08-06T02:39:29.325Z,18.36
2018-08-06T02:40:29.187Z,18.39
2018-08-06T02:41:29.372Z,18.41
2018-08-06T02:42:29.390Z,18.35
2018-08-06T02:43:29.154Z,18.23
2018-08-06T02:44:29.447Z,18.33
2018-08-06T02:45:29.466Z,18.33
2018-08-06T02:46:28.971Z,18.25
2018-08-06T02:47:29.510Z,18.3
2018-08-06T02:48:29.532Z,18.27
2018-08-06T02:49:29.559Z,18.33
2018-08-06T02:50:29.322Z,18.26
2018-08-06T02:51:29.626Z,18.3
2018-08-06T02:52:29.632Z,18.3
2018-08-06T02:53:29.669Z,18.29
2018-08-06T02:54:29.421Z,18.26
2018-08-06T02:55:29.702Z,18.29
2018-08-06T02:56:29.467Z,18.39
2018-08-06T02:57:29.749Z,18.32
2018-08-06T02:58:44.436Z,18.3
2018-08-06T02:59:29.546Z,18.25
2018-08-06T03:00:29.824Z,18.26
2018-08-06T03:01:29.845Z,18.25
2018-08-06T03:02:29.876Z,18.29
2018-08-06T03:03:29.901Z,18.27
2018-08-06T03:04:44.583Z,18.32
2018-08-06T03:05:29.942Z,18.18
2018-08-06T03:06:29.981Z,18.14
2018-08-06T03:07:29.989Z,18.14
2018-08-06T03:08:29.759Z,18.11
2018-08-06T03:09:29.782Z,18.08
2018-08-06T03:10:29.802Z,18.1
2018-08-06T03:11:30.089Z,18.12
2018-08-06T03:13:30.130Z,18.23
2018-08-06T03:14:44.817Z,18.12
2018-08-06T03:15:30.193Z,18.11
2018-08-06T03:16:30.207Z,18.14
2018-08-06T03:17:30.228Z,18.1
2018-08-06T03:18:30.253Z,18.1
2018-08-06T03:19:30.276Z,18.07
2018-08-06T03:20:30.304Z,18.12
2018-08-06T03:21:30.329Z,18.14
2018-08-06T03:22:30.090Z,18.12
2018-08-06T03:23:30.371Z,18.12
2018-08-06T03:25:30.164Z,18.14
2018-08-06T03:26:30.445Z,18.15
2018-08-06T03:27:45.125Z,18.12
2018-08-06T03:28:30.504Z,18.11
2018-08-06T03:29:30.278Z,18.07
2018-08-06T03:30:45.215Z,18.14
2018-08-06T03:31:30.565Z,18.2
2018-08-06T03:32:30.590Z,18.15
2018-08-06T03:33:30.613Z,18.12
2018-08-06T03:35:30.666Z,18.12
2018-08-06T03:36:30.681Z,18.14
2018-08-06T03:37:30.709Z,18.14
2018-08-06T03:38:30.469Z,18.27
2018-08-06T03:39:30.756Z,18.18
2018-08-06T03:40:30.523Z,18.14
2018-08-06T03:41:45.203Z,18.1
2018-08-06T03:42:30.309Z,18.11
2018-08-06T03:43:30.847Z,18.05
2018-08-06T03:44:30.615Z,18.07
2018-08-06T03:45:30.894Z,18.11
2018-08-06T03:46:45.583Z,17.96
2018-08-06T03:47:30.943Z,18.02
2018-08-06T03:49:30.733Z,18.05
2018-08-06T03:50:31.029Z,18.03
2018-08-06T03:51:31.041Z,18.05
2018-08-06T03:52:31.065Z,18.1
2018-08-06T03:53:31.091Z,18.07
2018-08-06T03:54:31.111Z,18.1
2018-08-06T03:55:45.797Z,18.05
2018-08-06T03:56:31.159Z,18.07
2018-08-06T03:57:31.189Z,18.12
2018-08-06T03:58:31.206Z,18.08
2018-08-06T03:59:31.231Z,18.11
2018-08-06T04:00:31.256Z,18.15
2018-08-06T04:01:45.940Z,18.07
2018-08-06T04:02:31.301Z,18.15
2018-08-06T04:03:31.326Z,18.2
2018-08-06T04:04:31.384Z,18.3
2018-08-06T04:05:31.116Z,18.25
2018-08-06T04:06:31.398Z,18.27
2018-08-06T04:07:31.426Z,18.23
2018-08-06T04:08:31.451Z,18.27
2018-08-06T04:09:31.218Z,18.17
2018-08-06T04:10:31.492Z,18.25
2018-08-06T04:11:31.517Z,18.25
2018-08-06T04:12:31.284Z,18.23
2018-08-06T04:13:31.772Z,18.25
2018-08-06T04:14:31.599Z,18.12
2018-08-06T04:15:31.608Z,18.27
2018-08-06T04:16:31.639Z,18.2
2018-08-06T04:17:31.659Z,18.3
2018-08-06T04:18:31.684Z,18.27
2018-08-06T04:19:31.708Z,18.32
2018-08-06T04:20:31.744Z,18.41
2018-08-06T04:21:31.496Z,18.35
2018-08-06T04:22:31.786Z,18.29
2018-08-06T04:23:31.807Z,18.36
2018-08-06T04:24:31.830Z,18.36
2018-08-06T04:25:46.517Z,18.41
2018-08-06T04:26:46.539Z,18.37
2018-08-06T04:27:31.909Z,18.48
2018-08-06T04:28:31.925Z,18.48
2018-08-06T04:29:31.948Z,18.39
2018-08-06T04:30:31.973Z,18.41
2018-08-06T04:31:31.740Z,18.48
2018-08-06T04:32:32.019Z,18.54
2018-08-06T04:33:46.707Z,18.48
2018-08-06T04:34:31.872Z,18.5
2018-08-06T04:35:32.097Z,18.54
2018-08-06T04:36:46.786Z,18.6
2018-08-06T04:37:31.891Z,18.57
2018-08-06T04:38:32.281Z,18.57
2018-08-06T04:39:31.933Z,18.55
2018-08-06T04:40:31.967Z,18.63
2018-08-06T04:41:32.239Z,18.67
2018-08-06T04:42:32.005Z,18.76
2018-08-06T04:43:32.287Z,18.87
2018-08-06T04:44:32.307Z,18.9
2018-08-06T04:45:32.077Z,18.84
2018-08-06T04:46:32.357Z,18.82
2018-08-06T04:47:32.124Z,18.91
2018-08-06T04:48:32.154Z,18.87
2018-08-06T04:49:47.091Z,19
2018-08-06T04:50:32.197Z,18.9
2018-08-06T04:51:32.220Z,18.98
2018-08-06T04:52:32.511Z,19
2018-08-06T04:53:32.526Z,19.08
2018-08-06T04:54:32.549Z,19.16
2018-08-06T04:55:32.580Z,19.02
2018-08-06T04:57:32.623Z,19.16
2018-08-06T04:58:32.133Z,19.26
2018-08-06T04:59:32.452Z,19.73
2018-08-06T05:00:32.694Z,20.72
2018-08-06T05:01:32.727Z,21.67
2018-08-06T05:02:32.748Z,22.7
2018-08-06T05:03:32.512Z,23.68
2018-08-06T05:04:32.799Z,24.46
2018-08-06T05:05:47.483Z,25.47
2018-08-06T05:07:32.615Z,26.28
2018-08-06T05:08:32.902Z,26.84
2018-08-06T05:09:32.929Z,26.87
2018-08-06T05:10:32.954Z,27.43
2018-08-06T05:11:32.723Z,28.02
2018-08-06T05:12:33.014Z,28.18
2018-08-06T05:13:32.534Z,28.73
2018-08-06T05:14:32.810Z,28.68
2018-08-06T05:15:33.098Z,28.68
2018-08-06T05:16:33.130Z,28.8
2018-08-06T05:17:32.895Z,29.02
2018-08-06T05:18:33.187Z,29.27
2018-08-06T05:19:33.302Z,28.92
2018-08-06T05:21:47.938Z,29.24
2018-08-06T05:22:33.051Z,29.24
2018-08-06T05:23:33.345Z,29.45
2018-08-06T05:24:33.369Z,28.78
2018-08-06T05:25:33.148Z,27.84
2018-08-06T05:26:33.177Z,28.52
2018-08-06T05:28:33.497Z,29.3
2018-08-06T05:29:33.276Z,29.45
2018-08-06T05:30:33.567Z,29.3
2018-08-06T05:31:48.259Z,29.57
2018-08-06T05:32:33.646Z,30.29
2018-08-06T05:33:33.409Z,30.53
2018-08-06T05:34:33.747Z,30.75
2018-08-06T05:35:33.730Z,31.26
2018-08-06T05:36:48.425Z,31.54
2018-08-06T05:37:33.806Z,31.44
2018-08-06T05:38:33.827Z,31.41
2018-08-06T05:39:33.864Z,31.78
2018-08-06T05:40:33.641Z,31.41
2018-08-06T05:41:33.673Z,30.23
2018-08-06T05:42:33.963Z,29.85
2018-08-06T05:43:34.000Z,30.02
2018-08-06T05:44:33.774Z,30.32
2018-08-06T05:45:34.065Z,29.82
2018-08-06T05:46:48.763Z,29.55
2018-08-06T05:47:34.140Z,29.97
2018-08-06T05:48:33.910Z,30.29
2018-08-06T05:49:34.208Z,31.09
2018-08-06T05:50:33.982Z,31.7
2018-08-06T05:51:34.272Z,32.23
2018-08-06T05:52:34.314Z,32.6
2018-08-06T05:53:34.085Z,32.79
2018-08-06T05:54:34.376Z,32.4
2018-08-06T05:56:34.446Z,32.37
2018-08-06T05:57:34.224Z,31.86
2018-08-06T05:58:34.265Z,32.32
2018-08-06T05:59:34.554Z,32.62
2018-08-06T06:00:34.588Z,33.04
2018-08-06T06:01:34.373Z,32.89
2018-08-06T06:02:34.664Z,32.85
2018-08-06T06:03:34.694Z,32.37
2018-08-06T06:04:34.733Z,32.32
2018-08-06T06:05:34.773Z,32.78
2018-08-06T06:06:34.802Z,31.84
2018-08-06T06:07:34.585Z,30.98
2018-08-06T06:08:49.540Z,31.07
2018-08-06T06:10:34.691Z,31.13
2018-08-06T06:11:34.987Z,30.69
2018-08-06T06:12:35.018Z,31.38
2018-08-06T06:13:35.057Z,31.72
2018-08-06T06:14:35.092Z,31.02
2018-08-06T06:15:35.128Z,31.17
2018-08-06T06:16:49.832Z,31.56
2018-08-06T06:17:34.940Z,32.26
2018-08-06T06:18:35.241Z,32.44
2018-08-06T06:19:35.275Z,32.35
2018-08-06T06:20:35.052Z,31.48
2018-08-06T06:21:35.347Z,31.75
2018-08-06T06:22:35.384Z,31.17
2018-08-06T06:23:35.419Z,31.58
2018-08-06T06:24:50.123Z,32.07
2018-08-06T06:25:35.501Z,31.58
2018-08-06T06:26:35.533Z,31.46
2018-08-06T06:27:35.563Z,31.41
2018-08-06T06:28:35.735Z,32.04
2018-08-06T06:29:35.785Z,32.59
2018-08-06T06:30:35.779Z,31.53
2018-08-06T06:31:35.713Z,30.84
2018-08-06T06:32:35.753Z,31.48
2018-08-06T06:33:35.788Z,32.04
2018-08-06T06:34:35.777Z,32.65
2018-08-06T06:35:35.865Z,32.78
2018-08-06T06:36:35.906Z,33.01
2018-08-06T06:37:35.936Z,33.44
2018-08-06T06:38:35.716Z,33.34
2018-08-06T06:39:36.007Z,33.54
2018-08-06T06:40:50.711Z,33.79
2018-08-06T06:41:36.099Z,33.91
2018-08-06T06:42:36.123Z,33.9
2018-08-06T06:43:36.160Z,34.05
2018-08-06T06:44:35.934Z,33.93
2018-08-06T06:46:36.364Z,33.84
2018-08-06T06:47:36.306Z,34.37
2018-08-06T06:48:36.341Z,34.1
2018-08-06T06:49:36.382Z,33.04
2018-08-06T06:50:36.417Z,32.75
2018-08-06T06:51:36.195Z,33.39
2018-08-06T06:52:36.495Z,33
2018-08-06T06:53:36.530Z,33.44
2018-08-06T06:54:36.906Z,33.45
2018-08-06T06:55:36.609Z,33.54
2018-08-06T06:56:51.046Z,34.22
2018-08-06T06:57:36.681Z,34.53
2018-08-06T06:58:36.721Z,34.52
2018-08-06T06:59:36.501Z,34.46
2018-08-06T07:00:36.793Z,34.88
2018-08-06T07:01:36.829Z,34.75
2018-08-06T07:02:36.609Z,34.88
2018-08-06T07:03:37.002Z,35.22
2018-08-06T07:04:36.946Z,34.32
2018-08-06T07:05:36.721Z,34.12
2018-08-06T07:06:37.018Z,34.34
2018-08-06T07:08:37.092Z,34.94
2018-08-06T07:09:37.131Z,34.97
2018-08-06T07:10:36.915Z,34.87
2018-08-06T07:11:51.614Z,34.42
2018-08-06T07:12:37.252Z,34.92
2018-08-06T07:13:37.432Z,35.38
2018-08-06T07:14:37.064Z,35.53
2018-08-06T07:15:37.379Z,36.12
2018-08-06T07:16:37.399Z,36
2018-08-06T07:17:37.180Z,35.84
2018-08-06T07:18:37.221Z,36.15
2018-08-06T07:19:37.513Z,36.16
2018-08-06T07:20:37.300Z,35.82
2018-08-06T07:21:37.590Z,35.72
2018-08-06T07:22:37.630Z,35.48
2018-08-06T07:23:37.671Z,35.5
2018-08-06T07:24:37.705Z,35.62
2018-08-06T07:25:37.742Z,35.78
2018-08-06T07:26:37.525Z,35.85
2018-08-06T07:27:37.820Z,36.22
2018-08-06T07:28:37.601Z,36.69
2018-08-06T07:29:37.899Z,35.9
2018-08-06T07:30:37.933Z,34.7
2018-08-06T07:34:38.098Z,33.72
2018-08-06T07:35:37.868Z,34.34
2018-08-06T07:36:38.173Z,34.77
2018-08-06T07:37:37.943Z,34.87
2018-08-06T07:38:52.905Z,35.04
2018-08-06T07:40:38.314Z,34.87
2018-08-06T07:41:38.101Z,34.89
2018-08-06T07:42:38.396Z,35.29
2018-08-06T07:43:53.099Z,35.48
2018-08-06T07:44:38.472Z,35.92
2018-08-06T07:45:38.508Z,35.99
2018-08-06T07:46:38.587Z,34.92
2018-08-06T07:47:38.327Z,34.85
2018-08-06T07:48:38.621Z,35.34
2018-08-06T07:49:38.679Z,35.6
2018-08-06T07:50:38.699Z,35.53
2018-08-06T07:51:38.738Z,35.37
2018-08-06T07:52:38.517Z,35.66
2018-08-06T07:53:38.813Z,35.84
2018-08-06T07:54:38.851Z,35.66
2018-08-06T07:55:38.889Z,35.41
2018-08-06T07:56:38.674Z,34.84
2018-08-06T07:57:38.717Z,33.78
2018-08-06T07:58:39.005Z,34.08
2018-08-06T07:59:53.459Z,34.02
2018-08-06T08:00:39.081Z,34.64
2018-08-06T08:01:38.864Z,35.21
2018-08-06T08:02:39.158Z,35.03
2018-08-06T08:03:39.193Z,35.29
2018-08-06T08:04:39.231Z,36.12
2018-08-06T08:05:39.265Z,36.25
2018-08-06T08:06:39.308Z,35.63
2018-08-06T08:07:39.347Z,34.94
2018-08-06T08:08:39.394Z,34.32
2018-08-06T08:09:39.430Z,34.25
2018-08-06T08:10:39.466Z,34.61
2018-08-06T08:11:39.498Z,34.54
2018-08-06T08:12:39.532Z,35.1
2018-08-06T08:13:54.250Z,35.16
2018-08-06T08:15:54.330Z,35.41
2018-08-06T08:16:39.426Z,35.11
2018-08-06T08:17:39.469Z,35.26
2018-08-06T08:18:39.778Z,35.58
2018-08-06T08:19:40.094Z,35.99
2018-08-06T08:20:39.939Z,34.72
2018-08-06T08:21:39.868Z,34.56
2018-08-06T08:22:39.920Z,34.4
2018-08-06T08:23:39.948Z,33.5
2018-08-06T08:24:39.987Z,33.38
2018-08-06T08:25:40.022Z,33.01
2018-08-06T08:26:54.722Z,33.79
2018-08-06T08:27:40.097Z,33.54
2018-08-06T08:28:40.148Z,33.72
2018-08-06T08:29:39.912Z,33.37
2018-08-06T08:30:40.207Z,34.02
2018-08-06T08:31:54.651Z,34.64
2018-08-06T08:32:40.280Z,34.84
2018-08-06T08:33:40.318Z,34.69
2018-08-06T08:34:40.355Z,34.47
2018-08-06T08:35:40.395Z,34.49
2018-08-06T08:36:40.433Z,34.84
2018-08-06T08:37:55.135Z,34.43
2018-08-06T08:38:40.500Z,34.43
2018-08-06T08:39:40.721Z,34.19
2018-08-06T08:40:40.325Z,34.69
2018-08-06T08:41:40.631Z,34.92
2018-08-06T08:42:40.660Z,35.11
2018-08-06T08:43:40.689Z,34.92
2018-08-06T08:44:40.480Z,35.47
2018-08-06T08:45:41.065Z,35.07
2018-08-06T08:46:55.465Z,35.06
2018-08-06T08:47:40.582Z,35.37
2018-08-06T08:49:55.582Z,32.96
2018-08-06T08:50:40.699Z,32.5
2018-08-06T08:51:40.730Z,32.3
2018-08-06T08:52:41.022Z,32.81
2018-08-06T08:53:40.806Z,33.45
2018-08-06T08:54:40.838Z,34.12
2018-08-06T08:55:41.143Z,34.87
2018-08-06T08:56:41.170Z,35
2018-08-06T08:57:41.203Z,34.5
2018-08-06T08:58:41.637Z,34.25
2018-08-06T08:59:41.281Z,34.35
2018-08-06T09:00:41.318Z,34.42
2018-08-06T09:01:41.355Z,33.53
2018-08-06T09:02:41.388Z,33.88
2018-08-06T09:03:41.423Z,33.28
2018-08-06T09:04:41.459Z,33.19
2018-08-06T09:05:41.238Z,33.22
2018-08-06T09:06:41.533Z,33.57
2018-08-06T09:07:41.567Z,33.45
2018-08-06T09:08:41.608Z,33.6
2018-08-06T09:09:41.383Z,33.91
2018-08-06T09:10:41.679Z,34.39
2018-08-06T09:11:56.376Z,33.32
2018-08-06T09:12:56.155Z,32.78
2018-08-06T09:13:41.524Z,32.52
2018-08-06T09:14:41.820Z,32.33
2018-08-06T09:15:41.856Z,33.14
2018-08-06T09:17:41.929Z,34.25
2018-08-06T09:18:56.374Z,34.5
2018-08-06T09:19:42.210Z,34.64
2018-08-06T09:20:42.034Z,34.91
2018-08-06T09:21:41.818Z,34.85
2018-08-06T09:22:42.101Z,35.07
2018-08-06T09:23:42.141Z,35.11
2018-08-06T09:24:41.924Z,35.71
2018-08-06T09:25:42.219Z,35.53
2018-08-06T09:26:42.363Z,35.28
2018-08-06T09:27:42.286Z,35.22
2018-08-06T09:28:56.985Z,35.09
2018-08-06T09:29:42.352Z,35.14
2018-08-06T09:30:42.132Z,34.87
2018-08-06T09:31:42.441Z,34.53
2018-08-06T09:32:42.465Z,34.4
2018-08-06T09:34:57.201Z,34.66
2018-08-06T09:35:42.578Z,35.04
2018-08-06T09:36:42.349Z,35.15
2018-08-06T09:37:42.657Z,35.29
2018-08-06T09:38:42.675Z,35.47
2018-08-06T09:39:57.379Z,35.96
2018-08-06T09:40:42.992Z,36.38
2018-08-06T09:41:42.786Z,35.85
2018-08-06T09:42:42.816Z,36.22
2018-08-06T09:44:42.896Z,35.9
2018-08-06T09:45:42.922Z,35.72
2018-08-06T09:46:42.958Z,34.97
2018-08-06T09:47:43.041Z,34.81
2018-08-06T09:49:43.064Z,35.52
2018-08-06T09:50:57.763Z,35.56
2018-08-06T09:51:43.133Z,35.58
2018-08-06T09:52:57.841Z,35.92
2018-08-06T09:53:43.206Z,35.52
2018-08-06T09:54:43.240Z,35.74
2018-08-06T09:55:43.275Z,35.99
2018-08-06T09:56:43.052Z,36.39
2018-08-06T09:57:43.344Z,36.22
2018-08-06T09:58:43.128Z,36.2
2018-08-06T09:59:43.171Z,35.59
2018-08-06T10:00:43.454Z,35.16
2018-08-06T10:01:43.490Z,35.63
2018-08-06T10:02:43.262Z,36.41
2018-08-06T10:03:43.557Z,36.05
2018-08-06T10:04:43.591Z,36.44
2018-08-06T10:05:44.073Z,36.53
2018-08-06T10:06:58.325Z,36.05
2018-08-06T10:07:43.718Z,35.82
2018-08-06T10:08:43.732Z,35.72
2018-08-06T10:09:43.511Z,36.19
2018-08-06T10:10:43.801Z,36.13
2018-08-06T10:11:43.837Z,36.9
2018-08-06T10:12:43.620Z,36.93
2018-08-06T10:13:43.904Z,36.5
2018-08-06T10:14:43.424Z,36.9
2018-08-06T10:15:43.982Z,36.59
2018-08-06T10:16:44.014Z,36.72
2018-08-06T10:17:58.451Z,36.59
2018-08-06T10:18:44.306Z,36.12
2018-08-06T10:19:43.686Z,35.75
2018-08-06T10:20:43.940Z,36.12
2018-08-06T10:21:58.847Z,35.55
2018-08-06T10:23:44.256Z,35.15
2018-08-06T10:24:44.288Z,35.11
2018-08-06T10:25:44.323Z,35.21
2018-08-06T10:26:44.360Z,35.31
2018-08-06T10:27:44.132Z,34.61
2018-08-06T10:28:44.431Z,34.62
2018-08-06T10:29:44.458Z,34.82
2018-08-06T10:30:44.811Z,34.7
2018-08-06T10:31:44.527Z,34.34
2018-08-06T10:32:44.576Z,34
2018-08-06T10:33:44.079Z,33.84
2018-08-06T10:34:44.630Z,33.38
2018-08-06T10:35:44.663Z,33.16
2018-08-06T10:36:44.699Z,33.42
2018-08-06T10:38:44.766Z,33.03
2018-08-06T10:40:44.835Z,32.59
2018-08-06T10:41:44.868Z,32.25
2018-08-06T10:42:44.904Z,32.11
2018-08-06T10:44:44.973Z,31.85
2018-08-06T10:45:44.745Z,32
2018-08-06T10:46:59.701Z,32.23
2018-08-06T10:47:59.735Z,32.55
2018-08-06T10:48:45.442Z,32.62
2018-08-06T10:49:45.140Z,32.4
2018-08-06T10:50:44.915Z,32.23
2018-08-06T10:51:45.203Z,32.01
2018-08-06T10:52:45.238Z,32.06
2018-08-06T10:54:00.160Z,32.4
2018-08-06T10:54:45.304Z,32.35
2018-08-06T10:56:45.371Z,32.33
2018-08-06T10:58:45.437Z,31.78
2018-08-06T10:59:45.584Z,31.76
2018-08-06T11:00:45.596Z,31.68
2018-08-06T11:01:45.542Z,31.76
2018-08-06T11:02:45.583Z,31.35
2018-08-06T11:04:00.264Z,31.39
2018-08-06T11:05:00.296Z,31.09
2018-08-06T11:05:45.409Z,30.82
2018-08-06T11:06:46.101Z,30.61
2018-08-06T11:07:45.475Z,30.37
2018-08-06T11:08:45.938Z,30.55
2018-08-06T11:10:00.207Z,30.42
2018-08-06T11:10:45.832Z,30.55
2018-08-06T11:11:45.859Z,30.76
2018-08-06T11:12:45.640Z,31.09
2018-08-06T11:13:45.664Z,31.12
2018-08-06T11:14:45.815Z,31.58
2018-08-06T11:15:45.992Z,31.85
2018-08-06T11:16:46.019Z,31.68
2018-08-06T11:18:00.718Z,31.26
2018-08-06T11:18:45.827Z,31.13
2018-08-06T11:19:46.116Z,31.29
2018-08-06T11:20:46.149Z,31.62
2018-08-06T11:21:46.178Z,31.75
2018-08-06T11:22:45.954Z,32
2018-08-06T11:23:46.251Z,31.96
2018-08-06T11:24:46.274Z,31.86
2018-08-06T11:26:00.968Z,31.85
2018-08-06T11:27:01.009Z,31.66
2018-08-06T11:28:46.143Z,31.58
2018-08-06T11:29:46.174Z,31.56
2018-08-06T11:30:46.467Z,31.46
2018-08-06T11:31:46.240Z,31.56
2018-08-06T11:32:46.270Z,31.54
2018-08-06T11:33:46.301Z,31.54
2018-08-06T11:34:46.329Z,31.58
2018-08-06T11:35:46.621Z,31.72
2018-08-06T11:37:01.380Z,32.07
2018-08-06T11:37:46.702Z,32.18
2018-08-06T11:38:46.203Z,31.93
2018-08-06T11:39:46.752Z,31.65
2018-08-06T11:40:46.518Z,31.23
2018-08-06T11:42:01.472Z,30.57
2018-08-06T11:42:46.841Z,30.02
2018-08-06T11:44:46.900Z,30.19
2018-08-06T11:45:46.677Z,30.24
2018-08-06T11:46:46.966Z,30.29
2018-08-06T11:47:46.740Z,30.42
2018-08-06T11:49:01.696Z,30.53
2018-08-06T11:49:47.054Z,30.79
2018-08-06T11:50:46.829Z,31.07
2018-08-06T11:51:47.115Z,31.43
2018-08-06T11:52:47.152Z,31.46
2018-08-06T11:53:47.187Z,31.57
2018-08-06T11:54:46.951Z,31.58
2018-08-06T11:55:47.239Z,31.23
2018-08-06T11:57:01.938Z,31.43
2018-08-06T11:57:46.786Z,31.25
2018-08-06T11:58:47.432Z,31.44
2018-08-06T11:59:47.106Z,31.44
2018-08-06T12:01:47.515Z,31.41
2018-08-06T12:02:47.457Z,31.56
2018-08-06T12:03:47.488Z,31.61
2018-08-06T12:04:47.517Z,31.76
2018-08-06T12:05:47.544Z,31.84
2018-08-06T12:06:47.576Z,31.63
2018-08-06T12:07:47.356Z,31.09
2018-08-06T12:09:02.446Z,30.76
2018-08-06T12:09:47.668Z,30.62
2018-08-06T12:10:47.700Z,30.8
2018-08-06T12:11:47.735Z,30.77
2018-08-06T12:12:47.783Z,30.13
2018-08-06T12:14:47.825Z,29.8
2018-08-06T12:15:47.899Z,30.26
2018-08-06T12:18:48.018Z,31.04
2018-08-06T12:19:47.985Z,31.19
2018-08-06T12:20:47.800Z,31.31
2018-08-06T12:21:48.035Z,31.32
2018-08-06T12:22:48.069Z,31.16
2018-08-06T12:23:48.098Z,30.95
2018-08-06T12:24:47.871Z,31.25
2018-08-06T12:25:48.189Z,31.54
2018-08-06T12:26:47.674Z,31.43
2018-08-06T12:27:48.222Z,31.34
2018-08-06T12:29:02.910Z,30.89
2018-08-06T12:29:48.280Z,30.91
2018-08-06T12:30:48.314Z,30.7
2018-08-06T12:32:48.373Z,31.17
2018-08-06T12:33:48.414Z,31.38
2018-08-06T12:34:48.491Z,31.54
2018-08-06T12:35:48.204Z,31.69
2018-08-06T12:36:48.232Z,31.75
2018-08-06T12:37:48.525Z,31.8
2018-08-06T12:38:48.555Z,31.93
2018-08-06T12:39:48.323Z,32.14
2018-08-06T12:40:48.355Z,32.18
2018-08-06T12:41:48.640Z,32.01
2018-08-06T12:42:48.674Z,31.5
2018-08-06T12:43:48.703Z,31.23
2018-08-06T12:45:03.139Z,31.06
2018-08-06T12:45:48.767Z,31.21
2018-08-06T12:46:48.542Z,31.38
2018-08-06T12:47:48.827Z,31.56
2018-08-06T12:48:48.597Z,31.44
2018-08-06T12:49:48.887Z,31.44
2018-08-06T12:50:48.660Z,31.48
2018-08-06T12:51:48.497Z,31.84
2018-08-06T12:52:48.977Z,31.84
2018-08-06T12:53:49.010Z,31.62
2018-08-06T12:55:03.698Z,31.7
2018-08-06T12:55:49.076Z,31.73
2018-08-06T12:56:49.096Z,31.86
2018-08-06T12:57:49.126Z,31.96
2018-08-06T12:58:48.900Z,31.93
2018-08-06T12:59:49.186Z,31.95
2018-08-06T13:01:03.881Z,31.92
2018-08-06T13:01:48.736Z,31.78
2018-08-06T13:02:49.380Z,31.72
2018-08-06T13:03:49.324Z,31.61
2018-08-06T13:04:49.338Z,31.57
2018-08-06T13:05:49.405Z,31.53
2018-08-06T13:06:49.510Z,31.51
2018-08-06T13:07:49.178Z,31.62
2018-08-06T13:08:49.200Z,31.86
2018-08-06T13:10:04.154Z,31.85
2018-08-06T13:10:49.262Z,31.72
2018-08-06T13:11:49.557Z,31.88
2018-08-06T13:12:49.587Z,31.8
2018-08-06T13:13:49.613Z,31.57
2018-08-06T13:14:49.383Z,31.47
2018-08-06T13:15:49.672Z,31.41
2018-08-06T13:17:04.110Z,31.28
2018-08-06T13:17:49.756Z,31.17
2018-08-06T13:18:49.765Z,31.28
2018-08-06T13:19:49.792Z,31.34
2018-08-06T13:20:49.823Z,31.41
2018-08-06T13:21:49.855Z,31.56
2018-08-06T13:22:49.625Z,31.58
2018-08-06T13:24:04.578Z,31.56
2018-08-06T13:24:50.153Z,31.63
2018-08-06T13:25:49.979Z,31.61
2018-08-06T13:26:50.006Z,31.7
2018-08-06T13:27:50.083Z,31.62
2018-08-06T13:28:50.083Z,31.53
2018-08-06T13:29:50.096Z,31.48
2018-08-06T13:30:50.132Z,31.5
2018-08-06T13:32:04.919Z,31.54
2018-08-06T13:32:50.184Z,31.63
2018-08-06T13:33:49.955Z,31.54
2018-08-06T13:34:50.246Z,31.57
2018-08-06T13:35:49.761Z,31.57
2018-08-06T13:36:50.139Z,31.62
2018-08-06T13:37:50.401Z,31.51
2018-08-06T13:38:50.369Z,31.5
2018-08-06T13:40:05.061Z,30.92
2018-08-06T13:40:50.178Z,30.62
2018-08-06T13:42:04.868Z,30.62
2018-08-06T13:43:04.895Z,30.73
2018-08-06T13:43:50.517Z,30.79
2018-08-06T13:45:50.581Z,31.23
2018-08-06T13:46:51.035Z,31.19
2018-08-06T13:47:50.634Z,31.41
2018-08-06T13:48:50.666Z,31.53